Time,TemperatureF,DewpointF,PressureIn,WindDirection,WindDirectionDegrees,WindSpeedMPH,WindSpeedGustMPH,Humidity,HourlyPrecipIn,Conditions,Clouds,dailyrainin,SoftwareType,DateUTC
2013-05-20 00:00:00,44.0,33.0,-100.00,North,-999,-999.0,-999.0,64,-99.99,,,-99.99,,2013-05-20 07:00:00,
2013-05-20 00:52:00,44.0,33.0,-100.00,North,-999,-999.0,-999.0,64,-99.99,,,-99.99,,2013-05-20 07:52:00,
2013-05-20 01:00:00,44.0,33.0,-100.00,SE,138,2.0,2.0,64,-99.99,,,0.00,,2013-05-20 08:00:00,
2013-05-20 02:00:00,44.0,30.0,-100.00,SE,126,1.0,2.0,58,-99.99,,,0.00,,2013-05-20 09:00:00,
2013-05-20 03:00:00,43.0,30.0,-100.00,SE,142,2.0,3.0,58,-99.99,,,0.00,,2013-05-20 10:00:00,
2013-05-20 04:00:00,43.0,31.0,-100.00,SSE,158,2.0,3.0,63,-99.99,,,0.00,,2013-05-20 11:00:00,
2013-05-20 05:00:00,43.0,33.0,-100.00,ESE,116,2.0,3.0,66,-99.99,,,0.00,,2013-05-20 12:00:00,
2013-05-20 06:00:00,44.0,33.0,-100.00,SE,145,3.0,4.0,67,-99.99,,,-99.99,,2013-05-20 13:00:00,
2013-05-20 06:52:00,44.0,33.0,-100.00,North,-999,-999.0,-999.0,67,-99.99,,,-99.99,,2013-05-20 13:52:00,
2013-05-20 07:00:00,46.0,34.0,-100.00,ESE,118,3.0,4.0,63,-99.99,,,-99.99,,2013-05-20 14:00:00,
2013-05-20 08:00:00,49.0,34.0,-100.00,SE,144,3.0,5.0,57,-99.99,,,-99.99,,2013-05-20 15:00:00,
2013-05-20 09:00:00,51.0,34.0,-100.00,SSE,148,3.0,6.0,52,-99.99,,,0.00,,2013-05-20 16:00:00,
2013-05-20 10:00:00,51.0,31.0,-100.00,SSE,159,4.0,6.0,47,-99.99,,,-99.99,,2013-05-20 17:00:00,
2013-05-20 11:00:00,51.0,33.0,-100.00,ESE,108,4.0,7.0,49,-99.99,,,-99.99,,2013-05-20 18:00:00,
2013-05-20 12:00:00,52.0,33.0,-100.00,ESE,119,4.0,7.0,49,-99.99,,,-99.99,,2013-05-20 19:00:00,
2013-05-20 13:00:00,53.0,34.0,-100.00,ENE,70,4.0,6.0,48,-99.99,,,-99.99,,2013-05-20 20:00:00,
2013-05-20 13:42:00,53.0,34.0,-100.00,ENE,70,4.0,6.0,48,-99.99,,,-99.99,,2013-05-20 20:42:00,
2013-05-20 13:52:00,53.0,34.0,-100.00,ENE,70,4.0,6.0,48,-99.99,,,-99.99,,2013-05-20 20:52:00,
2013-05-20 14:00:00,55.0,38.0,-100.00,NNW,334,2.0,4.0,51,-99.99,,,-99.99,,2013-05-20 21:00:00,
2013-05-20 14:43:00,55.0,38.0,-100.00,NNW,334,2.0,4.0,51,-99.99,,,-99.99,,2013-05-20 21:43:00,
2013-05-20 14:53:00,55.0,38.0,-100.00,NNW,334,2.0,4.0,51,-99.99,,,-99.99,,2013-05-20 21:53:00,
2013-05-20 16:00:00,56.0,35.0,-100.00,ESE,108,3.0,6.0,45,-99.99,,,-99.99,,2013-05-20 23:00:00,
2013-05-20 17:00:00,56.0,33.0,-100.00,ESE,123,3.0,7.0,41,-99.99,,,-99.99,,2013-05-21 00:00:00,
2013-05-20 18:00:00,56.0,34.0,-100.00,NE,39,2.0,5.0,42,-99.99,,,-99.99,,2013-05-21 01:00:00,
2013-05-20 19:00:00,53.0,36.0,-100.00,North,-999,-999.0,-999.0,52,-99.99,,,-99.99,,2013-05-21 02:00:00,
2013-05-20 20:00:00,47.0,34.0,-100.00,East,86,0.0,2.0,60,-99.99,,,-99.99,,2013-05-21 03:00:00,
2013-05-20 21:00:00,43.0,36.0,-100.00,East,97,0.0,1.0,76,-99.99,,,-99.99,,2013-05-21 04:00:00,
2013-05-20 21:53:00,43.0,36.0,-100.00,East,97,0.0,1.0,76,-99.99,,,-99.99,,2013-05-21 04:53:00,
2013-05-20 22:00:00,43.0,38.0,-100.00,ESE,109,0.0,1.0,82,-99.99,,,-99.99,,2013-05-21 05:00:00,
2013-05-20 22:42:00,43.0,38.0,-100.00,ESE,109,0.0,1.0,82,-99.99,,,-99.99,,2013-05-21 05:42:00,
2013-05-20 22:52:00,43.0,38.0,-100.00,ESE,109,0.0,1.0,82,-99.99,,,-99.99,,2013-05-21 05:52:00,
2013-05-20 23:00:00,43.0,37.0,-100.00,ESE,113,1.0,2.0,79,-99.99,,,-99.99,,2013-05-21 06:00:00,
2013-05-20 23:42:00,43.0,37.0,-100.00,ESE,113,1.0,2.0,79,-99.99,,,-99.99,,2013-05-21 06:42:00,
2013-05-20 23:52:00,43.0,37.0,-100.00,ESE,113,1.0,2.0,79,-99.99,,,-99.99,,2013-05-21 06:52:00,